Time;durP1;ratioP1;P1;durP2;ratioP2;P2;SDS_P1;SDS_P2;PMS_P1;PMS_P2;Temp;Humidity;BMP_temperature;BMP_pressure;BME280_temperature;BME280_humidity;BME280_pressure;Samples;Min_cycle;Max_cycle;Signal;HPM_P1;HPM_P2
2022/06/05 00:00:21;;;;;;;10.13;7.72;;;11.50;99.90;;;;;;4855107;29;20083;-77
2022/06/05 00:03:02;;;;;;;13.83;7.90;;;11.50;99.90;;;;;;4866699;29;20076;-77
2022/06/05 00:05:36;;;;;;;10.80;8.13;;;11.40;99.90;;;;;;4861084;29;20306;-77
2022/06/05 00:08:42;;;;;;;12.60;7.90;;;11.40;99.90;;;;;;4850103;29;20404;-77
2022/06/05 00:11:10;;;;;;;12.30;7.72;;;11.40;99.90;;;;;;4795212;29;20056;-77
2022/06/05 00:13:46;;;;;;;11.27;8.20;;;11.40;99.90;;;;;;4857761;29;20037;-77
2022/06/05 00:16:17;;;;;;;11.52;8.07;;;11.30;99.90;;;;;;4859643;29;20083;-77
2022/06/05 00:18:51;;;;;;;10.73;8.60;;;11.30;99.90;;;;;;4844985;29;20043;-77
2022/06/05 00:21:17;;;;;;;13.23;7.97;;;11.30;99.90;;;;;;4857803;29;20131;-77
2022/06/05 00:23:52;;;;;;;11.38;8.10;;;11.30;99.90;;;;;;4851608;29;20041;-77
2022/06/05 00:26:54;;;;;;;9.52;7.50;;;11.40;99.90;;;;;;4870901;29;20563;-77
2022/06/05 00:29:28;;;;;;;12.80;8.00;;;11.30;99.90;;;;;;4870220;29;20051;-77
2022/06/05 00:32:09;;;;;;;11.23;8.00;;;11.30;99.90;;;;;;4855486;29;20049;-77
2022/06/05 00:34:45;;;;;;;13.95;9.15;;;11.30;99.90;;;;;;4865627;29;20120;-77
2022/06/05 00:37:48;;;;;;;13.38;8.93;;;11.20;99.90;;;;;;4858030;29;20100;-77
2022/06/05 00:40:34;;;;;;;11.75;8.45;;;11.20;99.90;;;;;;4850198;29;20072;-76
2022/06/05 00:43:04;;;;;;;10.52;8.57;;;11.20;99.90;;;;;;4849163;29;20045;-77
2022/06/05 00:45:39;;;;;;;12.35;8.10;;;11.20;99.90;;;;;;4861416;29;20045;-77
2022/06/05 00:48:05;;;;;;;10.38;8.40;;;11.20;99.90;;;;;;4853786;29;20041;-77
2022/06/05 00:50:37;;;;;;;11.80;8.70;;;11.20;99.90;;;;;;4856365;29;20045;-77
2022/06/05 00:53:11;;;;;;;14.63;9.97;;;11.30;99.90;;;;;;4859671;29;20052;-77
2022/06/05 00:55:45;;;;;;;12.82;8.57;;;11.20;99.90;;;;;;4854081;29;20123;-77
2022/06/05 00:58:14;;;;;;;14.35;9.48;;;11.20;99.90;;;;;;4851306;29;20038;-77
2022/06/05 01:00:43;;;;;;;11.88;8.93;;;11.20;99.90;;;;;;4856470;29;20044;-77
2022/06/05 01:03:16;;;;;;;12.02;9.27;;;11.20;99.90;;;;;;4856876;29;20423;-77
2022/06/05 01:05:45;;;;;;;13.00;9.00;;;11.20;99.90;;;;;;4860502;29;20134;-78
2022/06/05 01:08:15;;;;;;;16.13;9.63;;;11.20;99.90;;;;;;4854735;29;20037;-77
2022/06/05 01:10:54;;;;;;;14.23;9.07;;;11.00;99.90;;;;;;4849977;29;20157;-77
2022/06/05 01:13:33;;;;;;;13.07;9.35;;;11.10;99.90;;;;;;4858345;29;20444;-77
2022/06/05 01:16:21;;;;;;;16.05;9.25;;;11.10;99.90;;;;;;4872539;29;20052;-77
2022/06/05 01:19:35;;;;;;;15.02;8.80;;;11.10;99.90;;;;;;4854976;29;20041;-77
2022/06/05 01:22:38;;;;;;;12.70;9.38;;;11.10;99.90;;;;;;4856635;29;20050;-77
2022/06/05 01:25:32;;;;;;;13.93;9.27;;;11.10;99.90;;;;;;4847224;29;20052;-77
2022/06/05 01:28:23;;;;;;;12.80;9.25;;;11.10;99.90;;;;;;4862226;29;20382;-77
2022/06/05 01:31:08;;;;;;;15.52;9.38;;;11.00;99.90;;;;;;4856961;29;20526;-77
2022/06/05 01:33:41;;;;;;;12.63;9.65;;;11.00;99.90;;;;;;4862511;29;20084;-77
2022/06/05 01:36:16;;;;;;;15.93;10.75;;;11.00;99.90;;;;;;4851449;29;20059;-77
2022/06/05 01:38:54;;;;;;;14.80;9.50;;;11.00;99.90;;;;;;4845042;29;20048;-77
2022/06/05 01:41:48;;;;;;;14.93;10.13;;;11.00;99.90;;;;;;4855894;29;20037;-77
2022/06/05 01:44:23;;;;;;;16.15;9.95;;;11.00;99.90;;;;;;4838297;29;20061;-77
2022/06/05 01:46:50;;;;;;;16.23;10.45;;;11.00;99.90;;;;;;4864457;29;20051;-77
2022/06/05 01:49:36;;;;;;;14.70;10.57;;;11.00;99.90;;;;;;4855594;29;20044;-77
2022/06/05 01:52:18;;;;;;;15.75;9.93;;;11.10;99.90;;;;;;4874855;29;20127;-77
2022/06/05 01:54:54;;;;;;;15.95;10.25;;;11.00;99.90;;;;;;4864237;29;20048;-76
2022/06/05 01:57:22;;;;;;;15.02;10.07;;;11.00;99.90;;;;;;4864037;29;20092;-76
2022/06/05 02:00:06;;;;;;;19.13;9.95;;;11.00;99.90;;;;;;4851002;29;20072;-77
2022/06/05 02:02:51;;;;;;;16.02;10.75;;;11.00;99.90;;;;;;4854588;29;20049;-77
2022/06/05 02:05:38;;;;;;;14.02;10.13;;;11.00;99.90;;;;;;4856332;29;20040;-77
2022/06/05 02:08:31;;;;;;;16.67;10.23;;;11.00;99.90;;;;;;4859628;29;20041;-77
2022/06/05 02:11:18;;;;;;;17.08;9.30;;;11.00;99.90;;;;;;4862731;29;20420;-77
2022/06/05 02:13:54;;;;;;;15.52;10.30;;;11.00;99.90;;;;;;4861122;29;20053;-77
2022/06/05 02:16:20;;;;;;;;;;;11.00;99.90;;;;;;4843610;29;20053;-77
2022/06/05 02:18:46;;;;;;;15.82;11.27;;;11.10;99.90;;;;;;4870680;29;19919;-77
2022/06/05 02:21:14;;;;;;;17.98;10.50;;;11.10;99.90;;;;;;4872097;29;20510;-77
2022/06/05 02:23:40;;;;;;;16.98;11.05;;;11.10;99.90;;;;;;4861987;29;20045;-77
2022/06/05 02:26:18;;;;;;;17.65;11.23;;;11.10;99.90;;;;;;4857286;29;20496;-76
2022/06/05 02:28:46;;;;;;;16.88;11.15;;;11.10;99.90;;;;;;4854083;29;20045;-77
2022/06/05 02:31:33;;;;;;;16.23;10.48;;;11.10;99.90;;;;;;4875544;29;20036;-77
2022/06/05 02:34:17;;;;;;;15.77;10.85;;;11.10;99.90;;;;;;4842132;29;20092;-77
2022/06/05 02:37:11;;;;;;;15.77;11.10;;;11.10;99.90;;;;;;4827351;29;20081;-77
2022/06/05 02:40:10;;;;;;;17.70;11.20;;;11.10;99.90;;;;;;4850907;29;20047;-77
2022/06/05 02:43:02;;;;;;;16.83;10.63;;;11.10;99.90;;;;;;4864144;29;20047;-77
2022/06/05 02:45:36;;;;;;;19.48;11.90;;;11.10;99.90;;;;;;4876521;29;20048;-77
2022/06/05 02:48:14;;;;;;;16.23;11.18;;;11.10;99.90;;;;;;4866844;29;20057;-77
2022/06/05 02:51:05;;;;;;;18.58;11.05;;;11.10;99.90;;;;;;4855430;29;20185;-77
2022/06/05 02:53:48;;;;;;;18.48;10.90;;;11.10;99.90;;;;;;4861630;29;20151;-77
2022/06/05 02:56:17;;;;;;;15.60;10.30;;;11.10;99.90;;;;;;4857764;29;20041;-77
2022/06/05 02:58:43;;;;;;;16.08;10.70;;;11.20;99.90;;;;;;4847386;29;20424;-77
2022/06/05 03:03:57;;;;;;;14.63;10.23;;;11.10;99.90;;;;;;4895622;29;20099;-77
2022/06/05 03:06:23;;;;;;;17.33;10.68;;;11.10;99.90;;;;;;4877702;29;20084;-77
2022/06/05 03:08:54;;;;;;;16.02;10.18;;;11.10;99.90;;;;;;4847104;29;20053;-77
2022/06/05 03:11:22;;;;;;;15.98;11.38;;;11.10;99.90;;;;;;4860501;29;20506;-77
2022/06/05 03:13:52;;;;;;;16.90;10.73;;;11.10;99.90;;;;;;4859327;29;20043;-77
2022/06/05 03:16:25;;;;;;;16.52;10.73;;;11.10;99.90;;;;;;4857985;29;20044;-77
2022/06/05 03:18:52;;;;;;;15.98;11.07;;;11.20;99.90;;;;;;4855373;29;20097;-77
2022/06/05 03:21:21;;;;;;;16.33;11.10;;;11.20;99.90;;;;;;4882393;29;20040;-76
2022/06/05 03:23:47;;;;;;;16.75;10.85;;;11.20;99.90;;;;;;4865609;29;20149;-77
2022/06/05 03:26:18;;;;;;;15.50;10.65;;;11.10;99.90;;;;;;4867641;29;20110;-77
2022/06/05 03:28:43;;;;;;;14.80;9.93;;;11.20;99.90;;;;;;4851742;29;20037;-77
2022/06/05 03:31:12;;;;;;;16.52;10.35;;;11.10;99.90;;;;;;4856498;29;20040;-77
2022/06/05 03:33:38;;;;;;;17.55;10.82;;;11.20;99.90;;;;;;4873968;23;20128;-80
2022/06/05 03:36:09;;;;;;;18.20;11.48;;;11.20;99.90;;;;;;4873799;29;20069;-80
2022/06/05 03:38:35;;;;;;;15.45;10.40;;;11.20;99.90;;;;;;4864017;29;20432;-81
2022/06/05 03:41:01;;;;;;;16.63;10.82;;;11.20;99.90;;;;;;4853520;29;20104;-80
2022/06/05 03:43:26;;;;;;;15.95;11.00;;;11.20;99.90;;;;;;4848198;29;20041;-81
2022/06/05 03:46:07;;;;;;;14.43;10.05;;;11.30;99.90;;;;;;4885720;29;20507;-81
2022/06/05 03:48:34;;;;;;;14.63;10.18;;;11.20;99.90;;;;;;4873581;29;20391;-80
2022/06/05 03:51:11;;;;;;;17.08;10.43;;;11.20;99.90;;;;;;4890766;29;20470;-81
2022/06/05 03:53:38;;;;;;;15.23;10.77;;;11.20;99.90;;;;;;4859783;29;20093;-82
2022/06/05 03:56:09;;;;;;;17.05;10.85;;;11.30;99.90;;;;;;4876181;29;20124;-80
2022/06/05 03:58:34;;;;;;;15.40;9.88;;;11.20;99.90;;;;;;4857285;29;20073;-81
2022/06/05 04:01:00;;;;;;;16.50;11.05;;;11.30;99.90;;;;;;4876774;29;20587;-80
2022/06/05 04:03:26;;;;;;;16.27;11.32;;;11.30;99.90;;;;;;4863678;29;20053;-79
2022/06/05 04:05:51;;;;;;;15.60;11.35;;;11.40;99.90;;;;;;4863294;29;20047;-78
2022/06/05 04:08:17;;;;;;;17.35;11.02;;;11.40;99.90;;;;;;4862156;29;20057;-79
2022/06/05 04:10:43;;;;;;;16.45;11.55;;;11.50;99.90;;;;;;4861443;29;20044;-77
2022/06/05 04:13:08;;;;;;;17.20;11.40;;;11.40;99.90;;;;;;4877532;29;20531;-78
2022/06/05 04:15:41;;;;;;;14.50;10.35;;;11.50;99.90;;;;;;4866323;29;20037;-78
2022/06/05 04:18:08;;;;;;;17.92;11.55;;;11.60;99.90;;;;;;4879851;29;20435;-78
2022/06/05 04:20:37;;;;;;;16.67;11.18;;;11.70;99.90;;;;;;4872596;29;20045;-78
2022/06/05 04:23:03;;;;;;;17.58;10.95;;;11.70;99.90;;;;;;4872527;29;20416;-78
2022/06/05 04:25:30;;;;;;;15.07;10.98;;;11.90;99.90;;;;;;4878483;29;20052;-78
2022/06/05 04:27:56;;;;;;;17.10;11.35;;;12.00;99.90;;;;;;4878670;29;20180;-78
2022/06/05 04:30:26;;;;;;;14.57;10.05;;;12.20;99.90;;;;;;4862348;29;20051;-79
2022/06/05 04:32:51;;;;;;;16.63;10.70;;;12.30;99.90;;;;;;4849336;29;20535;-77
2022/06/05 04:35:17;;;;;;;14.63;10.75;;;12.40;99.90;;;;;;4872006;29;20045;-77
2022/06/05 04:37:43;;;;;;;14.98;10.70;;;12.50;99.90;;;;;;4862916;29;20395;-78
2022/06/05 04:40:09;;;;;;;14.45;9.75;;;12.50;99.90;;;;;;4885230;29;20041;-78
2022/06/05 04:42:36;;;;;;;16.08;10.80;;;12.60;99.90;;;;;;4844100;29;20381;-78
2022/06/05 04:45:03;;;;;;;14.80;10.23;;;12.60;99.90;;;;;;4858388;29;20123;-78
2022/06/05 04:47:28;;;;;;;15.05;10.27;;;12.60;99.90;;;;;;4866216;29;20041;-78
2022/06/05 04:49:54;;;;;;;12.48;10.00;;;12.60;99.90;;;;;;4849158;29;20045;-78
2022/06/05 04:52:19;;;;;;;15.15;9.57;;;12.70;99.90;;;;;;4857502;29;20068;-78
2022/06/05 04:54:45;;;;;;;14.60;10.77;;;12.70;99.90;;;;;;4858036;29;20045;-78
2022/06/05 04:57:11;;;;;;;14.68;10.68;;;12.70;99.90;;;;;;4881700;29;20040;-78
2022/06/05 04:59:36;;;;;;;14.98;10.88;;;12.70;99.90;;;;;;4859806;29;20108;-78
2022/06/05 05:02:02;;;;;;;13.40;10.40;;;12.70;99.90;;;;;;4867780;29;20037;-78
2022/06/05 05:04:28;;;;;;;13.95;10.50;;;12.80;99.90;;;;;;4879218;29;20502;-78
2022/06/05 05:06:54;;;;;;;14.50;10.55;;;12.70;99.90;;;;;;4865789;29;20144;-78
2022/06/05 05:09:19;;;;;;;16.98;10.55;;;12.80;99.90;;;;;;4881024;29;20044;-78
2022/06/05 05:11:45;;;;;;;14.20;10.88;;;12.80;99.90;;;;;;4877089;29;20460;-77
2022/06/05 05:14:11;;;;;;;15.25;9.90;;;12.90;99.90;;;;;;4868790;29;20091;-77
2022/06/05 05:16:37;;;;;;;14.93;10.63;;;12.90;99.90;;;;;;4854758;29;20131;-78
2022/06/05 05:19:02;;;;;;;15.15;10.02;;;12.90;99.90;;;;;;4851332;29;20133;-78
2022/06/05 05:21:28;;;;;;;13.07;10.20;;;13.00;99.90;;;;;;4847127;29;20040;-78
2022/06/05 05:23:55;;;;;;;13.57;10.38;;;13.00;99.90;;;;;;4868241;29;20101;-78
2022/06/05 05:26:24;;;;;;;15.73;10.05;;;13.00;99.90;;;;;;4861434;29;20044;-77
2022/06/05 05:28:50;;;;;;;14.98;10.73;;;13.10;99.90;;;;;;4856195;29;20040;-78
2022/06/05 05:31:24;;;;;;;13.23;9.57;;;13.10;99.90;;;;;;4862445;29;20076;-78
2022/06/05 05:33:51;;;;;;;16.75;10.68;;;13.30;99.90;;;;;;4851661;29;20056;-78
2022/06/05 05:36:19;;;;;;;13.77;9.45;;;13.40;99.90;;;;;;4877988;29;20379;-77
2022/06/05 05:44:15;;;;;;;15.00;10.98;;;13.70;99.90;;;;;;4888870;29;20120;-78
2022/06/05 05:46:41;;;;;;;14.88;10.52;;;13.80;99.90;;;;;;4881486;29;20488;-78
2022/06/05 05:49:07;;;;;;;13.45;10.18;;;13.90;99.90;;;;;;4880349;29;20055;-78
2022/06/05 05:51:33;;;;;;;13.32;9.98;;;14.00;99.90;;;;;;4854270;29;20093;-78
2022/06/05 05:53:59;;;;;;;16.08;10.20;;;14.00;99.90;;;;;;4858921;29;20041;-79
2022/06/05 05:56:25;;;;;;;11.50;9.60;;;14.10;99.90;;;;;;4854740;29;20087;-78
2022/06/05 05:58:50;;;;;;;13.85;10.60;;;14.10;99.90;;;;;;4880238;29;20052;-78
2022/06/05 06:01:16;;;;;;;14.07;10.05;;;14.20;99.90;;;;;;4865308;29;20041;-78
2022/06/05 06:03:41;;;;;;;13.70;10.23;;;14.20;99.90;;;;;;4849419;29;20552;-78
2022/06/05 06:06:07;;;;;;;13.80;9.60;;;14.40;99.90;;;;;;4862111;29;20074;-78
2022/06/05 06:08:33;;;;;;;12.32;10.13;;;14.50;99.90;;;;;;4853563;29;20041;-78
2022/06/05 06:10:59;;;;;;;12.63;9.98;;;14.60;99.90;;;;;;4867062;29;20049;-78
2022/06/05 06:13:24;;;;;;;12.30;9.68;;;14.70;99.90;;;;;;4862566;29;20041;-78
2022/06/05 06:15:50;;;;;;;12.23;9.27;;;14.80;99.90;;;;;;4861578;29;20045;-78
2022/06/05 06:18:17;;;;;;;11.15;8.82;;;14.90;99.90;;;;;;4852506;29;20132;-79
2022/06/05 06:20:44;;;;;;;12.07;9.77;;;15.00;99.90;;;;;;4843348;29;20037;-78
2022/06/05 06:23:10;;;;;;;13.32;9.50;;;15.00;99.90;;;;;;4887343;29;20059;-77
2022/06/05 06:25:37;;;;;;;13.13;9.18;;;15.10;99.90;;;;;;4880155;29;20567;-78
2022/06/05 06:28:04;;;;;;;13.32;8.77;;;15.30;99.90;;;;;;4895481;29;20411;-79
2022/06/05 06:30:30;;;;;;;12.73;9.27;;;15.40;99.90;;;;;;4860005;29;20076;-78
2022/06/05 06:32:56;;;;;;;12.77;9.38;;;15.50;99.90;;;;;;4874686;29;20107;-78
2022/06/05 06:35:22;;;;;;;13.23;9.50;;;15.60;99.90;;;;;;4855366;29;20037;-79
2022/06/05 06:37:47;;;;;;;11.90;9.52;;;15.60;99.90;;;;;;4856421;29;20119;-79
2022/06/05 06:40:13;;;;;;;11.10;9.02;;;15.70;99.90;;;;;;4872278;29;20037;-79
2022/06/05 06:42:38;;;;;;;10.23;9.10;;;15.90;99.90;;;;;;4856684;29;20109;-79
2022/06/05 06:45:05;;;;;;;13.07;9.85;;;16.10;99.90;;;;;;4861559;29;20044;-78
2022/06/05 06:47:33;;;;;;;10.95;9.15;;;16.20;99.90;;;;;;4842520;29;20055;-79
2022/06/05 06:49:59;;;;;;;13.82;9.50;;;16.40;99.90;;;;;;4863027;29;20503;-78
2022/06/05 06:52:24;;;;;;;10.82;8.70;;;16.60;99.90;;;;;;4873589;29;20049;-78
2022/06/05 06:54:50;;;;;;;10.38;8.57;;;16.80;99.90;;;;;;4883065;29;20108;-80
2022/06/05 06:57:16;;;;;;;9.80;8.25;;;16.90;99.90;;;;;;4858145;29;20052;-79
2022/06/05 06:59:42;;;;;;;10.43;8.82;;;17.00;99.90;;;;;;4887442;29;20149;-80
2022/06/05 07:02:07;;;;;;;9.80;8.20;;;17.00;99.90;;;;;;4864368;29;20097;-79
2022/06/05 07:04:34;;;;;;;10.20;8.68;;;17.10;99.90;;;;;;4864593;29;20037;-80
2022/06/05 07:07:00;;;;;;;10.70;8.32;;;17.10;99.90;;;;;;4882790;29;20053;-79
2022/06/05 07:09:25;;;;;;;11.85;8.45;;;17.20;99.90;;;;;;4866871;29;20128;-80
2022/06/05 07:11:51;;;;;;;10.18;8.48;;;17.30;99.90;;;;;;4859045;29;20069;-79
2022/06/05 07:14:16;;;;;;;9.02;7.95;;;17.20;99.90;;;;;;4867438;29;20057;-80
2022/06/05 07:16:42;;;;;;;9.30;8.25;;;17.30;99.90;;;;;;4879724;29;20040;-81
2022/06/05 07:19:08;;;;;;;10.77;8.25;;;17.30;99.90;;;;;;4845509;29;20049;-80
2022/06/05 07:21:34;;;;;;;10.30;8.43;;;17.30;99.90;;;;;;4867945;29;20055;-79
2022/06/05 07:24:00;;;;;;;10.23;8.45;;;17.30;99.90;;;;;;4871928;29;20123;-79
2022/06/05 07:26:29;;;;;;;8.75;7.85;;;17.20;99.90;;;;;;4847354;29;20041;-80
2022/06/05 07:28:56;;;;;;;9.60;8.15;;;17.30;99.90;;;;;;4869021;29;20111;-79
2022/06/05 07:31:22;;;;;;;8.98;7.95;;;17.30;99.90;;;;;;4863253;29;20500;-80
2022/06/05 07:33:48;;;;;;;9.50;7.82;;;17.30;99.90;;;;;;4864186;29;20479;-79
2022/06/05 07:36:16;;;;;;;9.07;8.13;;;17.30;99.90;;;;;;4870756;29;20121;-79
2022/06/05 07:38:42;;;;;;;7.80;7.00;;;17.30;99.90;;;;;;4855826;29;20064;-80
2022/06/05 07:41:26;;;;;;;9.55;8.40;;;17.30;99.90;;;;;;4868744;29;20036;-80
2022/06/05 07:43:52;;;;;;;9.43;8.10;;;17.40;99.90;;;;;;4863976;29;20076;-80
2022/06/05 07:46:18;;;;;;;8.60;7.70;;;17.60;99.90;;;;;;4864505;29;20045;-80
2022/06/05 07:48:44;;;;;;;8.63;7.72;;;17.60;99.90;;;;;;4862897;29;20045;-80
2022/06/05 07:56:43;;;;;;;8.77;7.85;;;17.90;99.90;;;;;;4876471;29;20053;-80
2022/06/05 07:59:09;;;;;;;10.57;7.97;;;17.90;99.90;;;;;;4870288;29;20040;-82
2022/06/05 08:01:35;;;;;;;8.75;7.85;;;18.00;99.90;;;;;;4873245;29;20081;-80
2022/06/05 08:04:01;;;;;;;8.80;7.90;;;18.10;99.90;;;;;;4858291;29;20049;-79
2022/06/05 08:06:27;;;;;;;8.10;7.30;;;18.10;99.90;;;;;;4859008;29;20048;-80
2022/06/05 08:08:52;;;;;;;8.15;7.10;;;18.10;99.90;;;;;;4881844;29;20392;-80
2022/06/05 08:11:19;;;;;;;7.93;7.18;;;18.20;99.90;;;;;;4857461;29;20496;-81
2022/06/05 08:13:45;;;;;;;8.23;7.22;;;18.20;99.90;;;;;;4865341;29;20041;-79
2022/06/05 08:16:12;;;;;;;9.20;7.75;;;18.30;99.90;;;;;;4870871;29;20033;-79
2022/06/05 08:18:38;;;;;;;8.80;7.15;;;18.30;99.90;;;;;;4858268;29;20035;-79
2022/06/05 08:21:04;;;;;;;8.25;7.07;;;18.40;99.90;;;;;;4861546;29;20044;-79
2022/06/05 08:23:29;;;;;;;10.48;7.78;;;18.50;99.90;;;;;;4868215;29;20093;-79
2022/06/05 08:25:56;;;;;;;9.23;7.95;;;18.70;99.90;;;;;;4860916;29;20530;-79
2022/06/05 08:28:23;;;;;;;9.02;7.15;;;18.90;99.90;;;;;;4844944;29;20049;-79
2022/06/05 08:30:49;;;;;;;8.45;7.05;;;19.10;99.90;;;;;;4849310;29;20052;-80
2022/06/05 08:33:17;;;;;;;7.88;7.00;;;19.20;99.90;;;;;;4860179;29;20492;-79
2022/06/05 08:35:46;;;;;;;7.60;6.80;;;19.40;99.90;;;;;;4843792;29;20128;-77
2022/06/05 08:41:27;;;;;;;9.68;7.20;;;19.80;99.90;;;;;;4866491;29;20127;-79
2022/06/05 08:44:01;;;;;;;7.53;6.88;;;20.20;99.90;;;;;;4854733;29;20154;-80
2022/06/05 08:46:33;;;;;;;8.00;6.95;;;20.50;99.90;;;;;;4859835;29;20049;-79
2022/06/05 08:49:08;;;;;;;7.80;7.05;;;20.70;99.90;;;;;;4845678;29;20121;-79
2022/06/05 08:51:59;;;;;;;7.68;6.90;;;21.00;99.90;;;;;;4874282;29;20029;-79
2022/06/05 08:54:46;;;;;;;7.38;6.45;;;21.30;99.90;;;;;;4843976;29;20154;-77
2022/06/05 08:57:17;;;;;;;6.88;6.18;;;21.80;99.90;;;;;;4855524;29;20064;-80
2022/06/05 09:00:06;;;;;;;7.65;6.20;;;22.00;99.90;;;;;;4865811;29;20044;-80
2022/06/05 09:02:50;;;;;;;7.65;6.85;;;22.20;99.90;;;;;;4850429;29;20097;-79
2022/06/05 09:05:24;;;;;;;8.60;6.22;;;22.20;99.70;;;;;;4843278;29;20053;-80
2022/06/05 09:07:54;;;;;;;6.53;5.93;;;22.20;99.60;;;;;;4854995;29;20114;-80
2022/06/05 09:10:30;;;;;;;7.53;6.20;;;22.40;99.40;;;;;;4861384;29;20578;-81
2022/06/05 09:13:26;;;;;;;7.40;6.30;;;22.40;97.50;;;;;;4842868;29;20047;-83
2022/06/05 09:15:59;;;;;;;6.25;5.65;;;22.50;93.70;;;;;;4865901;29;20140;-82
2022/06/05 09:18:29;;;;;;;;;;;22.60;94.70;;;;;;4857717;29;20073;-80
2022/06/05 09:21:05;;;;;;;6.45;5.85;;;22.70;91.50;;;;;;4880659;29;19919;-79
2022/06/05 09:23:36;;;;;;;8.43;6.22;;;22.80;94.30;;;;;;4860806;29;20128;-80
2022/06/05 09:26:16;;;;;;;7.47;6.47;;;22.80;93.80;;;;;;4869952;29;20408;-79
2022/06/05 09:29:12;;;;;;;6.43;5.82;;;22.80;90.30;;;;;;4878356;29;20037;-80
2022/06/05 09:31:53;;;;;;;7.05;6.38;;;22.80;88.60;;;;;;4865805;29;20061;-81
2022/06/05 09:34:28;;;;;;;6.32;5.78;;;22.80;89.30;;;;;;4919590;23;20035;-78
2022/06/05 09:37:19;;;;;;;6.03;5.43;;;22.90;90.10;;;;;;4876938;29;20412;-77
2022/06/05 09:40:04;;;;;;;7.63;6.35;;;22.90;89.80;;;;;;4835075;29;20072;-78
2022/06/05 09:43:07;;;;;;;6.57;5.97;;;22.90;85.00;;;;;;4859554;29;20055;-80
2022/06/05 09:45:44;;;;;;;6.63;5.93;;;22.80;83.70;;;;;;4848260;29;20128;-77
2022/06/05 09:48:46;;;;;;;6.60;6.00;;;22.80;86.20;;;;;;4843305;29;20049;-81
2022/06/05 09:51:15;;;;;;;7.55;6.00;;;22.60;83.60;;;;;;4839764;29;20103;-79
2022/06/05 09:54:06;;;;;;;7.60;5.80;;;22.60;85.70;;;;;;4841535;29;20065;-78
2022/06/05 09:58:24;;;;;;;6.38;5.78;;;22.60;84.10;;;;;;4831559;29;20530;-79
2022/06/05 09:59:55;;;;;;;6.25;5.65;;;22.60;85.20;;;;;;4842626;29;20487;-77
2022/06/05 10:02:22;;;;;;;6.65;6.05;;;22.60;84.20;;;;;;4848341;29;20061;-79
2022/06/05 10:04:49;;;;;;;6.82;6.20;;;22.60;85.30;;;;;;4841205;29;20555;-77
2022/06/05 10:07:47;;;;;;;7.45;6.75;;;22.70;84.90;;;;;;4837026;29;20042;-77
2022/06/05 10:10:21;;;;;;;6.65;6.07;;;22.80;82.00;;;;;;4860913;29;20076;-77
2022/06/05 10:13:06;;;;;;;7.65;6.95;;;22.80;82.50;;;;;;4845737;29;20409;-77
2022/06/05 10:15:40;;;;;;;7.47;6.88;;;22.80;82.10;;;;;;4843945;29;20041;-77
2022/06/05 10:18:21;;;;;;;6.60;6.00;;;22.80;82.10;;;;;;4846238;29;20044;-77
2022/06/05 10:21:07;;;;;;;6.35;5.50;;;22.90;83.60;;;;;;4828402;29;20125;-77
2022/06/05 10:23:45;;;;;;;6.63;6.03;;;23.10;83.20;;;;;;4844015;29;20077;-77
2022/06/05 10:26:27;;;;;;;6.93;6.32;;;23.20;82.90;;;;;;4841487;29;20072;-77
2022/06/05 10:29:07;;;;;;;6.68;6.07;;;23.30;81.00;;;;;;4849708;29;20071;-78
2022/06/05 10:31:35;;;;;;;7.07;5.82;;;23.30;79.80;;;;;;4851604;29;20033;-77
2022/06/05 10:34:26;;;;;;;6.80;6.10;;;23.20;80.50;;;;;;4842771;29;20041;-78
2022/06/05 10:37:10;;;;;;;6.53;5.93;;;23.20;80.50;;;;;;4840701;29;20049;-78
2022/06/05 10:40:10;;;;;;;7.45;6.63;;;23.20;81.30;;;;;;4829791;29;20124;-78
2022/06/05 10:42:57;;;;;;;6.65;6.07;;;23.20;81.80;;;;;;4839691;29;20439;-78
2022/06/05 10:45:54;;;;;;;6.95;6.25;;;23.20;81.00;;;;;;4836919;29;20064;-77
2022/06/05 10:48:38;;;;;;;6.78;6.18;;;23.20;81.80;;;;;;4841756;29;20049;-78
2022/06/05 10:51:43;;;;;;;6.70;6.10;;;23.10;82.30;;;;;;4847054;29;20408;-78
2022/06/05 10:54:14;;;;;;;6.50;5.90;;;23.10;83.10;;;;;;4804029;29;20068;-78
2022/06/05 10:57:08;;;;;;;6.88;6.22;;;23.20;84.20;;;;;;4842828;29;20568;-78
2022/06/05 10:59:52;;;;;;;6.85;6.25;;;23.20;81.50;;;;;;4839685;29;20030;-78
2022/06/05 11:02:52;;;;;;;6.85;6.20;;;23.10;82.50;;;;;;4841144;29;20054;-79
2022/06/05 11:05:46;;;;;;;7.32;6.40;;;23.10;81.60;;;;;;4843426;29;20050;-78
2022/06/05 11:08:41;;;;;;;6.82;6.22;;;23.10;80.70;;;;;;4831603;29;20064;-78
2022/06/05 11:14:26;;;;;;;6.32;5.72;;;23.10;82.30;;;;;;4842878;29;20107;-79
2022/06/05 11:17:06;;;;;;;7.13;6.43;;;23.10;82.50;;;;;;4844936;29;20132;-77
2022/06/05 11:20:01;;;;;;;6.57;5.97;;;23.10;81.60;;;;;;4848799;29;20037;-77
2022/06/05 11:22:29;;;;;;;6.75;6.05;;;23.10;81.50;;;;;;4855921;29;20109;-78
2022/06/05 11:25:12;;;;;;;7.25;6.55;;;23.00;81.20;;;;;;4844835;29;20408;-78
2022/06/05 11:27:46;;;;;;;7.63;6.90;;;23.00;79.40;;;;;;4842784;29;20511;-78
2022/06/05 11:31:01;;;;;;;6.90;6.20;;;23.00;80.70;;;;;;4830014;29;20722;-78
2022/06/05 11:33:29;;;;;;;6.47;5.88;;;23.10;80.80;;;;;;4843311;29;20061;-78
2022/06/05 11:35:57;;;;;;;7.05;6.45;;;23.20;81.50;;;;;;4852337;29;20049;-78
2022/06/05 11:38:38;;;;;;;6.78;6.10;;;23.20;82.50;;;;;;4845873;29;20053;-78
2022/06/05 11:41:35;;;;;;;7.10;6.40;;;23.30;81.60;;;;;;4825242;29;20053;-78
2022/06/05 11:44:38;;;;;;;7.13;6.53;;;23.20;81.70;;;;;;4840095;29;20053;-78
2022/06/05 11:47:25;;;;;;;7.45;6.75;;;23.20;81.80;;;;;;4845301;29;20132;-78
2022/06/05 11:50:02;;;;;;;7.25;6.57;;;23.10;81.60;;;;;;4846181;29;20049;-77
2022/06/05 11:52:28;;;;;;;7.15;6.40;;;23.10;82.00;;;;;;4828098;29;20527;-80
2022/06/05 11:54:58;;;;;;;7.95;7.25;;;23.10;82.00;;;;;;4845908;29;20041;-78
2022/06/05 11:57:38;;;;;;;7.07;6.47;;;23.00;82.30;;;;;;4845572;29;20386;-80
2022/06/05 12:00:24;;;;;;;7.40;6.70;;;22.90;82.30;;;;;;4846392;29;20052;-80
2022/06/05 12:03:04;;;;;;;7.20;6.50;;;22.90;82.90;;;;;;4851320;29;20055;-79
2022/06/05 12:05:56;;;;;;;7.70;7.00;;;22.90;83.80;;;;;;4842374;29;20518;-78
2022/06/05 12:08:35;;;;;;;7.53;6.78;;;22.80;82.30;;;;;;4843476;29;20132;-78
2022/06/05 12:11:10;;;;;;;6.65;6.05;;;22.80;83.00;;;;;;4846497;29;20500;-78
2022/06/05 12:13:47;;;;;;;6.95;6.35;;;22.70;82.40;;;;;;4845605;29;20109;-79
2022/06/05 12:16:25;;;;;;;7.03;6.25;;;22.70;83.80;;;;;;4846050;29;20143;-78
2022/06/05 12:19:07;;;;;;;8.50;6.97;;;22.70;84.30;;;;;;4845018;29;20052;-78
2022/06/05 12:21:45;;;;;;;7.07;6.47;;;22.70;84.10;;;;;;4846347;29;20042;-78
2022/06/05 12:24:34;;;;;;;7.32;6.63;;;22.70;84.20;;;;;;4845843;29;20046;-78
2022/06/05 12:27:16;;;;;;;7.85;6.80;;;22.80;84.90;;;;;;4811601;29;20533;-79
2022/06/05 12:29:51;;;;;;;7.20;6.53;;;22.90;84.40;;;;;;4845531;29;20573;-79
2022/06/05 12:32:45;;;;;;;7.30;6.57;;;22.90;84.40;;;;;;4837698;29;20053;-78
2022/06/05 12:35:25;;;;;;;7.20;6.60;;;23.00;85.20;;;;;;4839419;29;20038;-79
2022/06/05 12:38:07;;;;;;;7.35;6.60;;;23.00;84.70;;;;;;4827595;29;20509;-79
2022/06/05 12:40:41;;;;;;;7.28;6.68;;;23.00;85.30;;;;;;4836144;29;20037;-78
2022/06/05 12:43:15;;;;;;;6.97;6.38;;;23.00;85.00;;;;;;4841876;29;20073;-78
2022/06/05 12:45:43;;;;;;;6.70;6.10;;;23.00;84.20;;;;;;4838117;29;20037;-78
2022/06/05 12:48:14;;;;;;;6.50;6.00;;;23.00;84.20;;;;;;4845828;29;20511;-78
2022/06/05 12:50:55;;;;;;;6.78;6.18;;;23.00;83.90;;;;;;4822322;29;20038;-78
2022/06/05 12:53:35;;;;;;;6.57;6.00;;;23.10;83.10;;;;;;4838087;29;20061;-79
2022/06/05 12:56:13;;;;;;;6.35;5.75;;;23.10;83.00;;;;;;4831454;29;20048;-80
2022/06/05 12:58:54;;;;;;;6.35;5.80;;;23.10;83.20;;;;;;4828171;29;20424;-80
2022/06/05 13:01:25;;;;;;;6.47;5.88;;;23.20;83.20;;;;;;4849250;29;20049;-80
2022/06/05 13:04:04;;;;;;;7.32;5.82;;;23.40;83.50;;;;;;4837024;29;20037;-80
2022/06/05 13:07:01;;;;;;;6.47;5.90;;;23.50;83.30;;;;;;4857954;29;20052;-80
2022/06/05 13:09:53;;;;;;;6.25;5.65;;;23.60;83.20;;;;;;4832484;29;20057;-80
2022/06/05 13:12:30;;;;;;;6.30;5.70;;;23.80;82.30;;;;;;4850425;29;20413;-80
2022/06/05 13:15:06;;;;;;;6.70;6.07;;;23.80;82.50;;;;;;4849577;29;20062;-80
2022/06/05 13:18:04;;;;;;;6.20;5.60;;;24.00;81.10;;;;;;4836367;29;20041;-81
2022/06/05 13:20:41;;;;;;;6.40;5.80;;;24.00;80.80;;;;;;4834057;29;20037;-80
2022/06/05 13:23:29;;;;;;;6.50;5.97;;;24.10;80.50;;;;;;4849360;29;20074;-80
2022/06/05 13:26:16;;;;;;;6.45;5.95;;;24.20;79.50;;;;;;4852532;29;20045;-80
2022/06/05 13:29:10;;;;;;;6.10;5.60;;;24.30;79.90;;;;;;4850290;29;20056;-80
2022/06/05 13:31:57;;;;;;;6.70;6.00;;;24.30;79.70;;;;;;4860797;29;20069;-81
2022/06/05 13:34:53;;;;;;;6.22;5.63;;;24.40;79.40;;;;;;4848574;29;20124;-80
2022/06/05 13:37:41;;;;;;;6.45;5.60;;;24.30;80.10;;;;;;4833545;29;20041;-80